sensor_id;sensor_type;location;lat;lon;timestamp;P1;durP1;ratioP1;P2;durP2;ratioP2
11230;SDS011;5672;51.060;3.734;2023-07-08T00:01:53;5.93;;;5.33;;
11230;SDS011;5672;51.060;3.734;2023-07-08T00:04:20;6.63;;;5.67;;
11230;SDS011;5672;51.060;3.734;2023-07-08T00:06:46;8.37;;;5.80;;
11230;SDS011;5672;51.060;3.734;2023-07-08T00:09:12;8.40;;;7.20;;
11230;SDS011;5672;51.060;3.734;2023-07-08T00:11:38;8.47;;;7.03;;
11230;SDS011;5672;51.060;3.734;2023-07-08T00:14:04;12.03;;;8.03;;
11230;SDS011;5672;51.060;3.734;2023-07-08T00:16:30;10.47;;;8.93;;
11230;SDS011;5672;51.060;3.734;2023-07-08T00:18:56;11.13;;;8.97;;
11230;SDS011;5672;51.060;3.734;2023-07-08T00:21:22;11.73;;;8.33;;
11230;SDS011;5672;51.060;3.734;2023-07-08T00:23:49;9.13;;;7.47;;
11230;SDS011;5672;51.060;3.734;2023-07-08T00:26:18;7.27;;;6.50;;
11230;SDS011;5672;51.060;3.734;2023-07-08T00:28:45;7.60;;;6.30;;
11230;SDS011;5672;51.060;3.734;2023-07-08T00:31:11;8.87;;;6.00;;
11230;SDS011;5672;51.060;3.734;2023-07-08T00:33:37;8.73;;;6.03;;
11230;SDS011;5672;51.060;3.734;2023-07-08T00:36:05;10.30;;;6.60;;
11230;SDS011;5672;51.060;3.734;2023-07-08T00:38:34;6.57;;;5.73;;
11230;SDS011;5672;51.060;3.734;2023-07-08T00:43:30;7.13;;;5.87;;
11230;SDS011;5672;51.060;3.734;2023-07-08T00:46:04;6.53;;;5.37;;
11230;SDS011;5672;51.060;3.734;2023-07-08T00:48:36;9.20;;;6.87;;
11230;SDS011;5672;51.060;3.734;2023-07-08T00:51:02;9.07;;;7.47;;
11230;SDS011;5672;51.060;3.734;2023-07-08T00:53:29;11.00;;;7.00;;
11230;SDS011;5672;51.060;3.734;2023-07-08T00:56:17;6.70;;;6.10;;
11230;SDS011;5672;51.060;3.734;2023-07-08T00:58:43;6.23;;;5.47;;
11230;SDS011;5672;51.060;3.734;2023-07-08T01:01:09;6.67;;;6.07;;
11230;SDS011;5672;51.060;3.734;2023-07-08T01:03:37;10.90;;;5.80;;
11230;SDS011;5672;51.060;3.734;2023-07-08T01:06:04;6.80;;;5.70;;
11230;SDS011;5672;51.060;3.734;2023-07-08T01:08:31;8.10;;;5.70;;
11230;SDS011;5672;51.060;3.734;2023-07-08T01:10:59;8.27;;;5.97;;
11230;SDS011;5672;51.060;3.734;2023-07-08T01:13:26;7.27;;;5.60;;
11230;SDS011;5672;51.060;3.734;2023-07-08T01:15:52;6.70;;;5.27;;
11230;SDS011;5672;51.060;3.734;2023-07-08T01:18:19;7.67;;;5.73;;
11230;SDS011;5672;51.060;3.734;2023-07-08T01:20:50;6.10;;;5.50;;
11230;SDS011;5672;51.060;3.734;2023-07-08T01:23:17;6.60;;;5.90;;
11230;SDS011;5672;51.060;3.734;2023-07-08T01:25:43;5.97;;;5.37;;
11230;SDS011;5672;51.060;3.734;2023-07-08T01:28:10;7.13;;;5.60;;
11230;SDS011;5672;51.060;3.734;2023-07-08T01:30:36;7.67;;;6.30;;
11230;SDS011;5672;51.060;3.734;2023-07-08T01:33:04;5.80;;;5.30;;
11230;SDS011;5672;51.060;3.734;2023-07-08T01:35:31;7.63;;;5.83;;
11230;SDS011;5672;51.060;3.734;2023-07-08T01:37:59;9.47;;;5.50;;
11230;SDS011;5672;51.060;3.734;2023-07-08T01:40:27;7.07;;;5.93;;
11230;SDS011;5672;51.060;3.734;2023-07-08T01:42:53;5.70;;;5.10;;
11230;SDS011;5672;51.060;3.734;2023-07-08T01:45:20;6.17;;;5.20;;
11230;SDS011;5672;51.060;3.734;2023-07-08T01:47:48;6.77;;;5.47;;
11230;SDS011;5672;51.060;3.734;2023-07-08T01:50:15;7.13;;;5.10;;
11230;SDS011;5672;51.060;3.734;2023-07-08T01:52:42;6.93;;;5.60;;
11230;SDS011;5672;51.060;3.734;2023-07-08T01:55:08;7.03;;;5.80;;
11230;SDS011;5672;51.060;3.734;2023-07-08T01:57:34;6.00;;;5.40;;
11230;SDS011;5672;51.060;3.734;2023-07-08T02:00:00;7.30;;;6.03;;
11230;SDS011;5672;51.060;3.734;2023-07-08T02:02:26;8.63;;;6.10;;
11230;SDS011;5672;51.060;3.734;2023-07-08T02:04:52;7.77;;;5.70;;
11230;SDS011;5672;51.060;3.734;2023-07-08T02:07:18;6.10;;;5.40;;
11230;SDS011;5672;51.060;3.734;2023-07-08T02:09:44;6.30;;;5.57;;
11230;SDS011;5672;51.060;3.734;2023-07-08T02:12:10;8.27;;;6.10;;
11230;SDS011;5672;51.060;3.734;2023-07-08T02:14:37;7.53;;;5.60;;
11230;SDS011;5672;51.060;3.734;2023-07-08T02:17:03;8.60;;;5.77;;
11230;SDS011;5672;51.060;3.734;2023-07-08T02:19:30;8.63;;;6.20;;
11230;SDS011;5672;51.060;3.734;2023-07-08T02:21:56;5.97;;;5.37;;
11230;SDS011;5672;51.060;3.734;2023-07-08T02:24:22;8.23;;;5.30;;
11230;SDS011;5672;51.060;3.734;2023-07-08T02:26:48;7.10;;;5.83;;
11230;SDS011;5672;51.060;3.734;2023-07-08T02:29:14;6.57;;;5.50;;
11230;SDS011;5672;51.060;3.734;2023-07-08T02:31:40;5.53;;;4.90;;
11230;SDS011;5672;51.060;3.734;2023-07-08T02:34:06;5.83;;;5.20;;
11230;SDS011;5672;51.060;3.734;2023-07-08T02:36:33;6.77;;;5.43;;
11230;SDS011;5672;51.060;3.734;2023-07-08T02:38:59;9.43;;;4.97;;
11230;SDS011;5672;51.060;3.734;2023-07-08T02:41:25;5.97;;;5.37;;
11230;SDS011;5672;51.060;3.734;2023-07-08T02:43:51;6.37;;;5.40;;
11230;SDS011;5672;51.060;3.734;2023-07-08T02:46:17;5.50;;;5.10;;
11230;SDS011;5672;51.060;3.734;2023-07-08T02:48:43;5.67;;;5.17;;
11230;SDS011;5672;51.060;3.734;2023-07-08T02:51:09;6.03;;;5.43;;
11230;SDS011;5672;51.060;3.734;2023-07-08T02:53:35;8.07;;;5.60;;
11230;SDS011;5672;51.060;3.734;2023-07-08T02:56:01;6.10;;;5.30;;
11230;SDS011;5672;51.060;3.734;2023-07-08T02:58:27;5.87;;;5.33;;
11230;SDS011;5672;51.060;3.734;2023-07-08T03:00:54;6.23;;;5.57;;
11230;SDS011;5672;51.060;3.734;2023-07-08T03:03:20;7.37;;;5.30;;
11230;SDS011;5672;51.060;3.734;2023-07-08T03:05:54;6.50;;;5.40;;
11230;SDS011;5672;51.060;3.734;2023-07-08T03:08:20;6.43;;;5.20;;
11230;SDS011;5672;51.060;3.734;2023-07-08T03:10:54;7.00;;;5.37;;
11230;SDS011;5672;51.060;3.734;2023-07-08T03:13:20;10.33;;;6.17;;
11230;SDS011;5672;51.060;3.734;2023-07-08T03:15:46;6.50;;;5.30;;
11230;SDS011;5672;51.060;3.734;2023-07-08T03:18:12;7.83;;;5.77;;
11230;SDS011;5672;51.060;3.734;2023-07-08T03:20:41;7.13;;;5.80;;
11230;SDS011;5672;51.060;3.734;2023-07-08T03:23:10;7.97;;;5.90;;
11230;SDS011;5672;51.060;3.734;2023-07-08T03:25:36;6.60;;;5.90;;
11230;SDS011;5672;51.060;3.734;2023-07-08T03:28:03;11.60;;;5.87;;
11230;SDS011;5672;51.060;3.734;2023-07-08T03:30:31;5.90;;;5.30;;
11230;SDS011;5672;51.060;3.734;2023-07-08T03:32:57;9.70;;;5.53;;
11230;SDS011;5672;51.060;3.734;2023-07-08T03:35:23;9.43;;;5.53;;
11230;SDS011;5672;51.060;3.734;2023-07-08T03:37:49;7.60;;;5.40;;
11230;SDS011;5672;51.060;3.734;2023-07-08T03:40:15;7.93;;;5.13;;
11230;SDS011;5672;51.060;3.734;2023-07-08T03:42:41;6.50;;;5.50;;
11230;SDS011;5672;51.060;3.734;2023-07-08T03:45:07;8.70;;;5.80;;
11230;SDS011;5672;51.060;3.734;2023-07-08T03:47:33;6.60;;;5.80;;
11230;SDS011;5672;51.060;3.734;2023-07-08T03:49:59;6.30;;;5.17;;
11230;SDS011;5672;51.060;3.734;2023-07-08T03:52:25;6.83;;;5.47;;
11230;SDS011;5672;51.060;3.734;2023-07-08T03:54:51;6.27;;;5.30;;
11230;SDS011;5672;51.060;3.734;2023-07-08T03:57:17;9.40;;;5.90;;
11230;SDS011;5672;51.060;3.734;2023-07-08T03:59:43;7.87;;;6.07;;
11230;SDS011;5672;51.060;3.734;2023-07-08T04:02:10;6.93;;;6.23;;
11230;SDS011;5672;51.060;3.734;2023-07-08T04:04:36;8.47;;;5.70;;
11230;SDS011;5672;51.060;3.734;2023-07-08T04:07:03;8.97;;;5.87;;
11230;SDS011;5672;51.060;3.734;2023-07-08T04:09:29;5.60;;;5.00;;
11230;SDS011;5672;51.060;3.734;2023-07-08T04:11:55;8.47;;;5.73;;
11230;SDS011;5672;51.060;3.734;2023-07-08T04:14:22;5.83;;;5.23;;
11230;SDS011;5672;51.060;3.734;2023-07-08T04:16:52;7.20;;;5.47;;
11230;SDS011;5672;51.060;3.734;2023-07-08T04:19:19;7.50;;;5.93;;
11230;SDS011;5672;51.060;3.734;2023-07-08T04:21:48;6.77;;;5.70;;
11230;SDS011;5672;51.060;3.734;2023-07-08T04:24:15;6.40;;;5.60;;
11230;SDS011;5672;51.060;3.734;2023-07-08T04:26:41;9.43;;;6.20;;
11230;SDS011;5672;51.060;3.734;2023-07-08T04:29:11;8.20;;;5.87;;
11230;SDS011;5672;51.060;3.734;2023-07-08T04:31:37;9.80;;;5.70;;
11230;SDS011;5672;51.060;3.734;2023-07-08T04:34:03;8.10;;;6.07;;
11230;SDS011;5672;51.060;3.734;2023-07-08T04:36:29;6.30;;;5.70;;
11230;SDS011;5672;51.060;3.734;2023-07-08T04:38:55;7.50;;;6.00;;
11230;SDS011;5672;51.060;3.734;2023-07-08T04:41:22;12.67;;;6.40;;
11230;SDS011;5672;51.060;3.734;2023-07-08T04:43:50;6.60;;;5.73;;
11230;SDS011;5672;51.060;3.734;2023-07-08T04:46:23;7.87;;;5.90;;
11230;SDS011;5672;51.060;3.734;2023-07-08T04:48:51;7.53;;;5.80;;
11230;SDS011;5672;51.060;3.734;2023-07-08T04:51:17;7.90;;;6.30;;
11230;SDS011;5672;51.060;3.734;2023-07-08T04:53:44;6.90;;;6.00;;
11230;SDS011;5672;51.060;3.734;2023-07-08T04:56:10;8.33;;;5.77;;
11230;SDS011;5672;51.060;3.734;2023-07-08T04:58:36;7.17;;;5.80;;
11230;SDS011;5672;51.060;3.734;2023-07-08T05:01:07;7.67;;;5.67;;
11230;SDS011;5672;51.060;3.734;2023-07-08T05:03:33;7.33;;;5.97;;
11230;SDS011;5672;51.060;3.734;2023-07-08T05:05:59;6.00;;;5.43;;
11230;SDS011;5672;51.060;3.734;2023-07-08T05:08:25;9.97;;;5.60;;
11230;SDS011;5672;51.060;3.734;2023-07-08T05:10:51;9.10;;;5.90;;
11230;SDS011;5672;51.060;3.734;2023-07-08T05:13:17;6.10;;;5.60;;
11230;SDS011;5672;51.060;3.734;2023-07-08T05:15:43;9.60;;;6.47;;
11230;SDS011;5672;51.060;3.734;2023-07-08T05:18:09;7.60;;;6.13;;
11230;SDS011;5672;51.060;3.734;2023-07-08T05:20:35;5.90;;;5.40;;
11230;SDS011;5672;51.060;3.734;2023-07-08T05:23:01;6.47;;;5.73;;
11230;SDS011;5672;51.060;3.734;2023-07-08T05:25:30;8.17;;;6.10;;
11230;SDS011;5672;51.060;3.734;2023-07-08T05:27:56;6.07;;;5.47;;
11230;SDS011;5672;51.060;3.734;2023-07-08T05:30:22;8.20;;;6.13;;
11230;SDS011;5672;51.060;3.734;2023-07-08T05:32:48;9.23;;;6.13;;
11230;SDS011;5672;51.060;3.734;2023-07-08T05:35:14;8.67;;;5.97;;
11230;SDS011;5672;51.060;3.734;2023-07-08T05:37:40;7.43;;;6.50;;
11230;SDS011;5672;51.060;3.734;2023-07-08T05:40:10;7.50;;;6.30;;
11230;SDS011;5672;51.060;3.734;2023-07-08T05:42:36;6.40;;;5.80;;
11230;SDS011;5672;51.060;3.734;2023-07-08T05:45:03;7.60;;;6.30;;
11230;SDS011;5672;51.060;3.734;2023-07-08T05:47:31;7.80;;;6.20;;
11230;SDS011;5672;51.060;3.734;2023-07-08T05:49:57;9.33;;;6.00;;
11230;SDS011;5672;51.060;3.734;2023-07-08T05:52:23;8.07;;;5.77;;
11230;SDS011;5672;51.060;3.734;2023-07-08T05:54:49;10.53;;;6.07;;
11230;SDS011;5672;51.060;3.734;2023-07-08T05:57:15;7.70;;;6.43;;
11230;SDS011;5672;51.060;3.734;2023-07-08T05:59:41;8.53;;;6.57;;
11230;SDS011;5672;51.060;3.734;2023-07-08T06:02:08;6.67;;;5.90;;
11230;SDS011;5672;51.060;3.734;2023-07-08T06:04:35;6.43;;;5.80;;
11230;SDS011;5672;51.060;3.734;2023-07-08T06:07:01;6.97;;;6.27;;
11230;SDS011;5672;51.060;3.734;2023-07-08T06:09:27;7.47;;;5.90;;
11230;SDS011;5672;51.060;3.734;2023-07-08T06:11:53;9.50;;;6.23;;
11230;SDS011;5672;51.060;3.734;2023-07-08T06:14:19;9.63;;;6.23;;
11230;SDS011;5672;51.060;3.734;2023-07-08T06:16:46;6.37;;;5.80;;
11230;SDS011;5672;51.060;3.734;2023-07-08T06:19:11;10.50;;;5.70;;
11230;SDS011;5672;51.060;3.734;2023-07-08T06:21:39;7.30;;;6.20;;
11230;SDS011;5672;51.060;3.734;2023-07-08T06:24:05;6.10;;;5.47;;
11230;SDS011;5672;51.060;3.734;2023-07-08T06:26:32;7.63;;;5.73;;
11230;SDS011;5672;51.060;3.734;2023-07-08T06:28:58;6.90;;;6.07;;
11230;SDS011;5672;51.060;3.734;2023-07-08T06:31:24;9.60;;;5.67;;
11230;SDS011;5672;51.060;3.734;2023-07-08T06:33:50;8.83;;;6.33;;
11230;SDS011;5672;51.060;3.734;2023-07-08T06:36:16;7.53;;;5.93;;
11230;SDS011;5672;51.060;3.734;2023-07-08T06:38:42;9.10;;;5.83;;
11230;SDS011;5672;51.060;3.734;2023-07-08T06:41:08;6.67;;;5.43;;
11230;SDS011;5672;51.060;3.734;2023-07-08T06:43:34;8.70;;;5.57;;
11230;SDS011;5672;51.060;3.734;2023-07-08T06:46:00;6.07;;;5.47;;
11230;SDS011;5672;51.060;3.734;2023-07-08T06:48:26;7.87;;;6.17;;
11230;SDS011;5672;51.060;3.734;2023-07-08T06:50:52;5.80;;;5.03;;
11230;SDS011;5672;51.060;3.734;2023-07-08T06:53:20;5.90;;;5.40;;
11230;SDS011;5672;51.060;3.734;2023-07-08T06:55:46;6.90;;;5.53;;
11230;SDS011;5672;51.060;3.734;2023-07-08T06:58:12;7.10;;;5.60;;
11230;SDS011;5672;51.060;3.734;2023-07-08T07:00:41;6.77;;;6.10;;
11230;SDS011;5672;51.060;3.734;2023-07-08T07:03:07;7.77;;;5.40;;
11230;SDS011;5672;51.060;3.734;2023-07-08T07:05:33;9.37;;;6.20;;
11230;SDS011;5672;51.060;3.734;2023-07-08T07:07:59;7.70;;;5.70;;
11230;SDS011;5672;51.060;3.734;2023-07-08T07:10:25;6.43;;;5.50;;
11230;SDS011;5672;51.060;3.734;2023-07-08T07:12:51;6.43;;;5.83;;
11230;SDS011;5672;51.060;3.734;2023-07-08T07:15:17;8.47;;;5.97;;
11230;SDS011;5672;51.060;3.734;2023-07-08T07:17:43;6.80;;;5.67;;
11230;SDS011;5672;51.060;3.734;2023-07-08T07:20:10;7.70;;;5.50;;
11230;SDS011;5672;51.060;3.734;2023-07-08T07:22:36;6.33;;;5.43;;
11230;SDS011;5672;51.060;3.734;2023-07-08T07:25:02;5.77;;;4.87;;
11230;SDS011;5672;51.060;3.734;2023-07-08T07:27:28;5.67;;;5.00;;
11230;SDS011;5672;51.060;3.734;2023-07-08T07:29:57;7.17;;;5.97;;
11230;SDS011;5672;51.060;3.734;2023-07-08T07:32:26;6.47;;;5.80;;
11230;SDS011;5672;51.060;3.734;2023-07-08T07:34:53;6.17;;;5.57;;
11230;SDS011;5672;51.060;3.734;2023-07-08T07:37:20;5.97;;;5.00;;
11230;SDS011;5672;51.060;3.734;2023-07-08T07:39:46;6.10;;;5.50;;
11230;SDS011;5672;51.060;3.734;2023-07-08T07:42:13;8.30;;;5.40;;
11230;SDS011;5672;51.060;3.734;2023-07-08T07:44:39;5.00;;;4.60;;
11230;SDS011;5672;51.060;3.734;2023-07-08T07:47:07;6.07;;;5.47;;
11230;SDS011;5672;51.060;3.734;2023-07-08T07:49:35;6.57;;;5.20;;
11230;SDS011;5672;51.060;3.734;2023-07-08T07:52:01;7.03;;;5.20;;
11230;SDS011;5672;51.060;3.734;2023-07-08T07:54:27;7.77;;;5.33;;
11230;SDS011;5672;51.060;3.734;2023-07-08T07:56:53;7.03;;;5.83;;
11230;SDS011;5672;51.060;3.734;2023-07-08T07:59:19;5.43;;;5.00;;
11230;SDS011;5672;51.060;3.734;2023-07-08T08:01:45;7.33;;;5.53;;
11230;SDS011;5672;51.060;3.734;2023-07-08T08:04:11;6.00;;;5.50;;
11230;SDS011;5672;51.060;3.734;2023-07-08T08:06:37;6.53;;;5.67;;
11230;SDS011;5672;51.060;3.734;2023-07-08T08:09:04;6.33;;;5.70;;
11230;SDS011;5672;51.060;3.734;2023-07-08T08:11:30;7.20;;;5.50;;
11230;SDS011;5672;51.060;3.734;2023-07-08T08:13:56;7.03;;;5.70;;
11230;SDS011;5672;51.060;3.734;2023-07-08T08:16:23;7.78;;;5.35;;
11230;SDS011;5672;51.060;3.734;2023-07-08T08:18:49;8.00;;;5.23;;
11230;SDS011;5672;51.060;3.734;2023-07-08T08:21:15;7.87;;;5.60;;
11230;SDS011;5672;51.060;3.734;2023-07-08T08:23:41;5.77;;;5.17;;
11230;SDS011;5672;51.060;3.734;2023-07-08T08:26:07;7.30;;;5.93;;
11230;SDS011;5672;51.060;3.734;2023-07-08T08:28:33;8.90;;;4.90;;
11230;SDS011;5672;51.060;3.734;2023-07-08T08:30:59;9.47;;;5.40;;
11230;SDS011;5672;51.060;3.734;2023-07-08T08:33:25;6.70;;;5.37;;
11230;SDS011;5672;51.060;3.734;2023-07-08T08:35:51;6.30;;;5.27;;
11230;SDS011;5672;51.060;3.734;2023-07-08T08:38:17;5.67;;;5.17;;
11230;SDS011;5672;51.060;3.734;2023-07-08T08:40:43;6.13;;;5.20;;
11230;SDS011;5672;51.060;3.734;2023-07-08T08:43:10;10.67;;;5.50;;
11230;SDS011;5672;51.060;3.734;2023-07-08T08:45:45;5.80;;;4.90;;
11230;SDS011;5672;51.060;3.734;2023-07-08T08:48:15;5.43;;;4.93;;
11230;SDS011;5672;51.060;3.734;2023-07-08T08:50:52;6.47;;;5.50;;
11230;SDS011;5672;51.060;3.734;2023-07-08T08:53:19;6.80;;;5.07;;
11230;SDS011;5672;51.060;3.734;2023-07-08T08:55:49;6.80;;;5.30;;
11230;SDS011;5672;51.060;3.734;2023-07-08T08:58:23;5.83;;;5.30;;
11230;SDS011;5672;51.060;3.734;2023-07-08T09:00:53;7.27;;;5.13;;
11230;SDS011;5672;51.060;3.734;2023-07-08T09:03:32;5.70;;;5.20;;
11230;SDS011;5672;51.060;3.734;2023-07-08T09:06:00;12.80;;;5.50;;
11230;SDS011;5672;51.060;3.734;2023-07-08T09:11:00;5.77;;;5.13;;
11230;SDS011;5672;51.060;3.734;2023-07-08T09:19:00;6.13;;;5.50;;
11230;SDS011;5672;51.060;3.734;2023-07-08T09:21:32;8.50;;;6.27;;
11230;SDS011;5672;51.060;3.734;2023-07-08T09:24:03;7.50;;;5.30;;
11230;SDS011;5672;51.060;3.734;2023-07-08T09:26:30;5.90;;;5.30;;
11230;SDS011;5672;51.060;3.734;2023-07-08T09:28:56;5.97;;;5.30;;
11230;SDS011;5672;51.060;3.734;2023-07-08T09:31:23;6.20;;;5.60;;
11230;SDS011;5672;51.060;3.734;2023-07-08T09:33:53;5.90;;;5.40;;
11230;SDS011;5672;51.060;3.734;2023-07-08T09:36:22;9.13;;;7.73;;
11230;SDS011;5672;51.060;3.734;2023-07-08T09:38:50;20.23;;;12.17;;
11230;SDS011;5672;51.060;3.734;2023-07-08T09:41:29;23.37;;;14.20;;
11230;SDS011;5672;51.060;3.734;2023-07-08T09:46:35;33.23;;;22.03;;
11230;SDS011;5672;51.060;3.734;2023-07-08T09:49:08;34.33;;;23.73;;
11230;SDS011;5672;51.060;3.734;2023-07-08T09:51:35;30.20;;;20.33;;
11230;SDS011;5672;51.060;3.734;2023-07-08T09:54:01;22.87;;;15.90;;
11230;SDS011;5672;51.060;3.734;2023-07-08T09:56:27;24.40;;;15.77;;
11230;SDS011;5672;51.060;3.734;2023-07-08T09:58:53;16.20;;;11.77;;
11230;SDS011;5672;51.060;3.734;2023-07-08T10:01:21;15.30;;;9.63;;
11230;SDS011;5672;51.060;3.734;2023-07-08T10:03:48;10.90;;;8.73;;
11230;SDS011;5672;51.060;3.734;2023-07-08T10:08:43;9.80;;;7.43;;
11230;SDS011;5672;51.060;3.734;2023-07-08T10:13:40;12.27;;;9.73;;
11230;SDS011;5672;51.060;3.734;2023-07-08T10:16:13;27.73;;;16.10;;
11230;SDS011;5672;51.060;3.734;2023-07-08T10:18:40;40.13;;;26.00;;
11230;SDS011;5672;51.060;3.734;2023-07-08T10:21:13;39.70;;;26.23;;
11230;SDS011;5672;51.060;3.734;2023-07-08T10:26:14;39.73;;;26.37;;
11230;SDS011;5672;51.060;3.734;2023-07-08T10:28:45;48.10;;;32.23;;
11230;SDS011;5672;51.060;3.734;2023-07-08T10:31:16;45.77;;;28.60;;
11230;SDS011;5672;51.060;3.734;2023-07-08T10:33:53;29.73;;;18.73;;
11230;SDS011;5672;51.060;3.734;2023-07-08T10:39:25;20.33;;;13.60;;
11230;SDS011;5672;51.060;3.734;2023-07-08T10:44:44;6.27;;;4.97;;
11230;SDS011;5672;51.060;3.734;2023-07-08T10:47:28;10.93;;;7.50;;
11230;SDS011;5672;51.060;3.734;2023-07-08T10:55:40;15.57;;;10.90;;
11230;SDS011;5672;51.060;3.734;2023-07-08T10:58:08;24.47;;;17.27;;
11230;SDS011;5672;51.060;3.734;2023-07-08T11:00:47;14.70;;;10.73;;
11230;SDS011;5672;51.060;3.734;2023-07-08T11:06:01;26.83;;;17.30;;
11230;SDS011;5672;51.060;3.734;2023-07-08T11:09:11;17.30;;;12.07;;
11230;SDS011;5672;51.060;3.734;2023-07-08T11:13:51;15.53;;;10.53;;
11230;SDS011;5672;51.060;3.734;2023-07-08T11:16:26;18.97;;;13.07;;
11230;SDS011;5672;51.060;3.734;2023-07-08T11:19:04;8.83;;;6.77;;
11230;SDS011;5672;51.060;3.734;2023-07-08T11:21:35;27.70;;;18.70;;
11230;SDS011;5672;51.060;3.734;2023-07-08T11:24:05;22.13;;;15.77;;
11230;SDS011;5672;51.060;3.734;2023-07-08T11:32:19;33.47;;;22.73;;
11230;SDS011;5672;51.060;3.734;2023-07-08T11:34:46;20.00;;;14.40;;
11230;SDS011;5672;51.060;3.734;2023-07-08T11:37:13;49.40;;;32.57;;
11230;SDS011;5672;51.060;3.734;2023-07-08T11:39:44;26.57;;;19.03;;
11230;SDS011;5672;51.060;3.734;2023-07-08T11:42:17;25.57;;;17.00;;
11230;SDS011;5672;51.060;3.734;2023-07-08T11:44:51;27.20;;;18.60;;
11230;SDS011;5672;51.060;3.734;2023-07-08T11:47:21;30.00;;;18.60;;
11230;SDS011;5672;51.060;3.734;2023-07-08T11:49:50;35.40;;;22.57;;
11230;SDS011;5672;51.060;3.734;2023-07-08T11:52:19;9.95;;;7.65;;
11230;SDS011;5672;51.060;3.734;2023-07-08T11:54:45;35.63;;;23.73;;
11230;SDS011;5672;51.060;3.734;2023-07-08T11:57:16;28.03;;;18.90;;
11230;SDS011;5672;51.060;3.734;2023-07-08T11:59:43;14.00;;;10.53;;
11230;SDS011;5672;51.060;3.734;2023-07-08T12:02:17;22.30;;;15.13;;
11230;SDS011;5672;51.060;3.734;2023-07-08T12:07:29;8.80;;;7.10;;
11230;SDS011;5672;51.060;3.734;2023-07-08T12:10:38;6.40;;;5.80;;
11230;SDS011;5672;51.060;3.734;2023-07-08T12:12:45;7.33;;;5.47;;
11230;SDS011;5672;51.060;3.734;2023-07-08T12:15:14;6.43;;;5.83;;
11230;SDS011;5672;51.060;3.734;2023-07-08T12:17:41;10.07;;;6.20;;
11230;SDS011;5672;51.060;3.734;2023-07-08T12:20:17;9.17;;;5.63;;
11230;SDS011;5672;51.060;3.734;2023-07-08T12:22:44;9.23;;;6.70;;
11230;SDS011;5672;51.060;3.734;2023-07-08T12:25:13;6.33;;;5.70;;
11230;SDS011;5672;51.060;3.734;2023-07-08T12:27:41;6.20;;;5.60;;
11230;SDS011;5672;51.060;3.734;2023-07-08T12:30:08;6.73;;;5.50;;
11230;SDS011;5672;51.060;3.734;2023-07-08T12:32:35;6.83;;;5.97;;
11230;SDS011;5672;51.060;3.734;2023-07-08T12:35:01;7.67;;;6.03;;
11230;SDS011;5672;51.060;3.734;2023-07-08T12:37:29;7.97;;;5.60;;
11230;SDS011;5672;51.060;3.734;2023-07-08T12:39:56;6.47;;;5.87;;
11230;SDS011;5672;51.060;3.734;2023-07-08T12:42:28;7.57;;;6.77;;
11230;SDS011;5672;51.060;3.734;2023-07-08T12:44:54;10.23;;;7.33;;
11230;SDS011;5672;51.060;3.734;2023-07-08T12:47:20;14.67;;;11.40;;
11230;SDS011;5672;51.060;3.734;2023-07-08T12:49:46;10.93;;;9.33;;
11230;SDS011;5672;51.060;3.734;2023-07-08T12:52:20;15.00;;;9.83;;
11230;SDS011;5672;51.060;3.734;2023-07-08T12:54:46;9.80;;;7.97;;
11230;SDS011;5672;51.060;3.734;2023-07-08T12:57:12;11.83;;;8.60;;
11230;SDS011;5672;51.060;3.734;2023-07-08T12:59:39;8.33;;;7.37;;
11230;SDS011;5672;51.060;3.734;2023-07-08T13:02:09;7.30;;;6.50;;
11230;SDS011;5672;51.060;3.734;2023-07-08T13:04:40;9.23;;;7.43;;
11230;SDS011;5672;51.060;3.734;2023-07-08T13:07:22;9.57;;;7.87;;
11230;SDS011;5672;51.060;3.734;2023-07-08T13:09:49;10.83;;;8.07;;
11230;SDS011;5672;51.060;3.734;2023-07-08T13:12:16;11.50;;;9.50;;
11230;SDS011;5672;51.060;3.734;2023-07-08T13:14:45;18.10;;;13.03;;
11230;SDS011;5672;51.060;3.734;2023-07-08T13:17:12;10.43;;;8.47;;
11230;SDS011;5672;51.060;3.734;2023-07-08T13:19:39;9.87;;;7.73;;
11230;SDS011;5672;51.060;3.734;2023-07-08T13:22:05;10.20;;;7.50;;
11230;SDS011;5672;51.060;3.734;2023-07-08T13:24:31;9.27;;;7.60;;
11230;SDS011;5672;51.060;3.734;2023-07-08T13:26:58;8.90;;;7.27;;
11230;SDS011;5672;51.060;3.734;2023-07-08T13:29:24;8.60;;;6.87;;
11230;SDS011;5672;51.060;3.734;2023-07-08T13:31:55;31.97;;;24.53;;
11230;SDS011;5672;51.060;3.734;2023-07-08T13:34:23;12.70;;;10.07;;
11230;SDS011;5672;51.060;3.734;2023-07-08T13:36:49;8.60;;;7.00;;
11230;SDS011;5672;51.060;3.734;2023-07-08T13:39:37;6.47;;;5.88;;
11230;SDS011;5672;51.060;3.734;2023-07-08T13:42:02;7.82;;;6.65;;
11230;SDS011;5672;51.060;3.734;2023-07-08T13:44:29;7.75;;;6.40;;
11230;SDS011;5672;51.060;3.734;2023-07-08T13:46:57;8.38;;;6.43;;
11230;SDS011;5672;51.060;3.734;2023-07-08T13:51:50;11.30;;;7.60;;
11230;SDS011;5672;51.060;3.734;2023-07-08T13:54:21;11.98;;;8.63;;
11230;SDS011;5672;51.060;3.734;2023-07-08T13:56:48;25.92;;;16.80;;
11230;SDS011;5672;51.060;3.734;2023-07-08T13:59:17;53.85;;;37.42;;
11230;SDS011;5672;51.060;3.734;2023-07-08T14:01:44;37.33;;;28.27;;
11230;SDS011;5672;51.060;3.734;2023-07-08T14:04:11;30.90;;;23.20;;
11230;SDS011;5672;51.060;3.734;2023-07-08T14:06:38;23.65;;;16.65;;
11230;SDS011;5672;51.060;3.734;2023-07-08T14:09:15;19.85;;;14.73;;
11230;SDS011;5672;51.060;3.734;2023-07-08T14:11:42;18.10;;;13.10;;
11230;SDS011;5672;51.060;3.734;2023-07-08T14:14:08;23.85;;;16.00;;
11230;SDS011;5672;51.060;3.734;2023-07-08T14:16:35;19.80;;;14.63;;
11230;SDS011;5672;51.060;3.734;2023-07-08T14:19:03;17.10;;;13.35;;
11230;SDS011;5672;51.060;3.734;2023-07-08T14:21:30;17.23;;;11.98;;
11230;SDS011;5672;51.060;3.734;2023-07-08T14:23:56;16.20;;;12.18;;
11230;SDS011;5672;51.060;3.734;2023-07-08T14:26:22;15.77;;;11.60;;
11230;SDS011;5672;51.060;3.734;2023-07-08T14:28:47;17.55;;;12.05;;
11230;SDS011;5672;51.060;3.734;2023-07-08T14:31:15;12.93;;;10.07;;
11230;SDS011;5672;51.060;3.734;2023-07-08T14:33:43;12.60;;;10.25;;
11230;SDS011;5672;51.060;3.734;2023-07-08T14:36:09;10.18;;;8.75;;
11230;SDS011;5672;51.060;3.734;2023-07-08T14:38:35;12.82;;;9.20;;
11230;SDS011;5672;51.060;3.734;2023-07-08T14:41:01;11.07;;;8.82;;
11230;SDS011;5672;51.060;3.734;2023-07-08T14:43:28;11.73;;;9.02;;
11230;SDS011;5672;51.060;3.734;2023-07-08T14:45:55;11.77;;;9.25;;
11230;SDS011;5672;51.060;3.734;2023-07-08T14:48:22;10.45;;;9.32;;
11230;SDS011;5672;51.060;3.734;2023-07-08T14:50:48;11.82;;;9.15;;
11230;SDS011;5672;51.060;3.734;2023-07-08T14:53:15;10.35;;;8.77;;
11230;SDS011;5672;51.060;3.734;2023-07-08T14:55:42;14.80;;;10.55;;
11230;SDS011;5672;51.060;3.734;2023-07-08T14:58:09;11.80;;;9.57;;
11230;SDS011;5672;51.060;3.734;2023-07-08T15:00:39;12.02;;;9.57;;
11230;SDS011;5672;51.060;3.734;2023-07-08T15:03:06;12.27;;;9.73;;
11230;SDS011;5672;51.060;3.734;2023-07-08T15:05:32;13.30;;;8.10;;
11230;SDS011;5672;51.060;3.734;2023-07-08T15:07:58;8.00;;;6.95;;
11230;SDS011;5672;51.060;3.734;2023-07-08T15:10:25;8.57;;;7.68;;
11230;SDS011;5672;51.060;3.734;2023-07-08T15:12:52;10.85;;;8.20;;
11230;SDS011;5672;51.060;3.734;2023-07-08T15:15:23;8.05;;;7.10;;
11230;SDS011;5672;51.060;3.734;2023-07-08T15:17:52;10.90;;;8.13;;
11230;SDS011;5672;51.060;3.734;2023-07-08T15:20:18;8.07;;;7.13;;
11230;SDS011;5672;51.060;3.734;2023-07-08T15:22:44;9.77;;;7.90;;
11230;SDS011;5672;51.060;3.734;2023-07-08T15:25:13;10.07;;;7.68;;
11230;SDS011;5672;51.060;3.734;2023-07-08T15:27:40;12.38;;;8.70;;
11230;SDS011;5672;51.060;3.734;2023-07-08T15:30:13;11.95;;;7.22;;
11230;SDS011;5672;51.060;3.734;2023-07-08T15:32:40;10.95;;;8.65;;
11230;SDS011;5672;51.060;3.734;2023-07-08T15:35:11;9.03;;;7.83;;
11230;SDS011;5672;51.060;3.734;2023-07-08T15:37:37;9.25;;;7.00;;
11230;SDS011;5672;51.060;3.734;2023-07-08T15:40:03;8.15;;;6.40;;
11230;SDS011;5672;51.060;3.734;2023-07-08T15:42:33;7.87;;;6.80;;
11230;SDS011;5672;51.060;3.734;2023-07-08T15:44:59;10.50;;;7.83;;
11230;SDS011;5672;51.060;3.734;2023-07-08T15:47:25;7.50;;;6.80;;